sensor_id;sensor_type;location;lat;lon;timestamp;P1;durP1;ratioP1;P2;durP2;ratioP2
7939;SDS011;4015;48.888;9.226;2023-02-23T00:01:57;24.07;;;18.67;;
7939;SDS011;4015;48.888;9.226;2023-02-23T00:04:31;24.83;;;17.77;;
7939;SDS011;4015;48.888;9.226;2023-02-23T00:06:57;21.53;;;17.83;;
7939;SDS011;4015;48.888;9.226;2023-02-23T00:09:23;25.67;;;16.93;;
7939;SDS011;4015;48.888;9.226;2023-02-23T00:11:52;23.80;;;15.87;;
7939;SDS011;4015;48.888;9.226;2023-02-23T00:14:19;23.43;;;16.70;;
7939;SDS011;4015;48.888;9.226;2023-02-23T00:16:44;21.90;;;16.57;;
7939;SDS011;4015;48.888;9.226;2023-02-23T00:19:10;22.17;;;16.03;;
7939;SDS011;4015;48.888;9.226;2023-02-23T00:21:38;25.17;;;16.30;;
7939;SDS011;4015;48.888;9.226;2023-02-23T00:24:05;24.53;;;15.80;;
7939;SDS011;4015;48.888;9.226;2023-02-23T00:26:33;22.10;;;17.03;;
7939;SDS011;4015;48.888;9.226;2023-02-23T00:29:00;25.67;;;16.73;;
7939;SDS011;4015;48.888;9.226;2023-02-23T00:31:27;19.87;;;15.20;;
7939;SDS011;4015;48.888;9.226;2023-02-23T00:33:54;19.60;;;15.33;;
7939;SDS011;4015;48.888;9.226;2023-02-23T00:36:22;19.27;;;14.93;;
7939;SDS011;4015;48.888;9.226;2023-02-23T00:38:52;19.80;;;15.53;;
7939;SDS011;4015;48.888;9.226;2023-02-23T00:41:19;22.67;;;16.10;;
7939;SDS011;4015;48.888;9.226;2023-02-23T00:43:52;21.17;;;15.90;;
7939;SDS011;4015;48.888;9.226;2023-02-23T00:46:19;20.43;;;15.90;;
7939;SDS011;4015;48.888;9.226;2023-02-23T00:48:47;24.40;;;15.43;;
7939;SDS011;4015;48.888;9.226;2023-02-23T00:51:13;20.37;;;14.83;;
7939;SDS011;4015;48.888;9.226;2023-02-23T00:53:40;21.70;;;15.50;;
7939;SDS011;4015;48.888;9.226;2023-02-23T00:56:07;20.97;;;15.70;;
7939;SDS011;4015;48.888;9.226;2023-02-23T00:58:33;23.03;;;15.23;;
7939;SDS011;4015;48.888;9.226;2023-02-23T01:00:59;19.57;;;16.17;;
7939;SDS011;4015;48.888;9.226;2023-02-23T01:03:25;19.43;;;16.23;;
7939;SDS011;4015;48.888;9.226;2023-02-23T01:05:50;22.00;;;16.73;;
7939;SDS011;4015;48.888;9.226;2023-02-23T01:08:16;21.57;;;16.03;;
7939;SDS011;4015;48.888;9.226;2023-02-23T01:10:42;21.43;;;16.07;;
7939;SDS011;4015;48.888;9.226;2023-02-23T01:13:10;24.27;;;17.47;;
7939;SDS011;4015;48.888;9.226;2023-02-23T01:15:41;19.43;;;16.50;;
7939;SDS011;4015;48.888;9.226;2023-02-23T01:18:07;23.13;;;17.03;;
7939;SDS011;4015;48.888;9.226;2023-02-23T01:20:33;19.90;;;16.53;;
7939;SDS011;4015;48.888;9.226;2023-02-23T01:23:00;21.20;;;15.90;;
7939;SDS011;4015;48.888;9.226;2023-02-23T01:25:26;20.97;;;16.47;;
7939;SDS011;4015;48.888;9.226;2023-02-23T01:27:53;24.93;;;16.53;;
7939;SDS011;4015;48.888;9.226;2023-02-23T01:30:19;21.03;;;15.93;;
7939;SDS011;4015;48.888;9.226;2023-02-23T01:32:44;21.00;;;16.70;;
7939;SDS011;4015;48.888;9.226;2023-02-23T01:35:10;23.63;;;16.37;;
7939;SDS011;4015;48.888;9.226;2023-02-23T01:37:37;26.77;;;18.07;;
7939;SDS011;4015;48.888;9.226;2023-02-23T01:40:04;23.03;;;16.03;;
7939;SDS011;4015;48.888;9.226;2023-02-23T01:42:37;23.03;;;16.77;;
7939;SDS011;4015;48.888;9.226;2023-02-23T01:45:23;22.50;;;15.87;;
7939;SDS011;4015;48.888;9.226;2023-02-23T01:47:49;21.13;;;16.63;;
7939;SDS011;4015;48.888;9.226;2023-02-23T01:50:16;24.97;;;17.53;;
7939;SDS011;4015;48.888;9.226;2023-02-23T01:52:43;20.57;;;15.90;;
7939;SDS011;4015;48.888;9.226;2023-02-23T01:55:10;20.23;;;16.33;;
7939;SDS011;4015;48.888;9.226;2023-02-23T01:57:38;20.00;;;17.13;;
7939;SDS011;4015;48.888;9.226;2023-02-23T02:00:06;23.00;;;16.63;;
7939;SDS011;4015;48.888;9.226;2023-02-23T02:02:39;21.90;;;16.93;;
7939;SDS011;4015;48.888;9.226;2023-02-23T02:05:05;23.30;;;17.60;;
7939;SDS011;4015;48.888;9.226;2023-02-23T02:07:37;25.63;;;16.70;;
7939;SDS011;4015;48.888;9.226;2023-02-23T02:10:06;21.23;;;17.23;;
7939;SDS011;4015;48.888;9.226;2023-02-23T02:12:32;20.97;;;16.37;;
7939;SDS011;4015;48.888;9.226;2023-02-23T02:14:57;22.70;;;16.53;;
7939;SDS011;4015;48.888;9.226;2023-02-23T02:17:36;19.47;;;15.80;;
7939;SDS011;4015;48.888;9.226;2023-02-23T02:20:16;20.40;;;16.43;;
7939;SDS011;4015;48.888;9.226;2023-02-23T02:26:06;26.53;;;18.13;;
7939;SDS011;4015;48.888;9.226;2023-02-23T02:34:12;26.50;;;18.53;;
7939;SDS011;4015;48.888;9.226;2023-02-23T02:47:27;25.20;;;18.43;;
7939;SDS011;4015;48.888;9.226;2023-02-23T02:50:16;20.77;;;16.50;;
7939;SDS011;4015;48.888;9.226;2023-02-23T02:53:13;22.20;;;16.87;;
7939;SDS011;4015;48.888;9.226;2023-02-23T02:55:44;24.30;;;17.53;;
7939;SDS011;4015;48.888;9.226;2023-02-23T02:58:12;25.67;;;17.03;;
7939;SDS011;4015;48.888;9.226;2023-02-23T03:00:44;20.67;;;16.80;;
7939;SDS011;4015;48.888;9.226;2023-02-23T03:03:38;18.97;;;16.50;;
7939;SDS011;4015;48.888;9.226;2023-02-23T03:06:32;22.13;;;15.83;;
7939;SDS011;4015;48.888;9.226;2023-02-23T03:09:32;22.73;;;16.70;;
7939;SDS011;4015;48.888;9.226;2023-02-23T03:15:54;23.00;;;16.57;;
7939;SDS011;4015;48.888;9.226;2023-02-23T03:21:49;21.63;;;16.40;;
7939;SDS011;4015;48.888;9.226;2023-02-23T03:24:59;21.47;;;16.20;;
7939;SDS011;4015;48.888;9.226;2023-02-23T03:27:51;18.10;;;15.03;;
7939;SDS011;4015;48.888;9.226;2023-02-23T03:37:11;24.03;;;16.47;;
7939;SDS011;4015;48.888;9.226;2023-02-23T03:40:17;22.43;;;17.40;;
7939;SDS011;4015;48.888;9.226;2023-02-23T03:43:05;22.13;;;16.80;;
7939;SDS011;4015;48.888;9.226;2023-02-23T03:45:53;25.93;;;17.27;;
7939;SDS011;4015;48.888;9.226;2023-02-23T03:48:40;23.20;;;17.03;;
7939;SDS011;4015;48.888;9.226;2023-02-23T03:51:27;29.83;;;17.43;;
7939;SDS011;4015;48.888;9.226;2023-02-23T03:54:38;20.73;;;16.87;;
7939;SDS011;4015;48.888;9.226;2023-02-23T03:57:26;21.63;;;17.20;;
7939;SDS011;4015;48.888;9.226;2023-02-23T04:00:14;23.13;;;17.70;;
7939;SDS011;4015;48.888;9.226;2023-02-23T04:03:04;24.60;;;17.50;;
7939;SDS011;4015;48.888;9.226;2023-02-23T04:05:50;21.20;;;16.07;;
7939;SDS011;4015;48.888;9.226;2023-02-23T04:08:38;24.27;;;18.30;;
7939;SDS011;4015;48.888;9.226;2023-02-23T04:14:08;24.80;;;17.13;;
7939;SDS011;4015;48.888;9.226;2023-02-23T04:16:42;22.93;;;18.07;;
7939;SDS011;4015;48.888;9.226;2023-02-23T04:19:08;22.87;;;18.13;;
7939;SDS011;4015;48.888;9.226;2023-02-23T04:21:33;23.30;;;18.47;;
7939;SDS011;4015;48.888;9.226;2023-02-23T04:23:59;22.90;;;17.27;;
7939;SDS011;4015;48.888;9.226;2023-02-23T04:26:24;20.10;;;16.47;;
7939;SDS011;4015;48.888;9.226;2023-02-23T04:28:49;22.83;;;16.97;;
7939;SDS011;4015;48.888;9.226;2023-02-23T04:31:14;18.83;;;15.90;;
7939;SDS011;4015;48.888;9.226;2023-02-23T04:33:42;20.70;;;16.73;;
7939;SDS011;4015;48.888;9.226;2023-02-23T04:36:07;22.87;;;17.33;;
7939;SDS011;4015;48.888;9.226;2023-02-23T04:38:33;20.53;;;16.17;;
7939;SDS011;4015;48.888;9.226;2023-02-23T04:40:58;22.77;;;17.23;;
7939;SDS011;4015;48.888;9.226;2023-02-23T04:43:23;19.77;;;16.37;;
7939;SDS011;4015;48.888;9.226;2023-02-23T04:45:49;20.37;;;17.43;;
7939;SDS011;4015;48.888;9.226;2023-02-23T04:48:14;20.80;;;17.50;;
7939;SDS011;4015;48.888;9.226;2023-02-23T04:50:39;21.83;;;16.83;;
7939;SDS011;4015;48.888;9.226;2023-02-23T04:53:05;24.47;;;17.00;;
7939;SDS011;4015;48.888;9.226;2023-02-23T04:55:30;21.13;;;17.07;;
7939;SDS011;4015;48.888;9.226;2023-02-23T04:57:57;23.47;;;16.67;;
7939;SDS011;4015;48.888;9.226;2023-02-23T05:00:24;19.17;;;16.17;;
7939;SDS011;4015;48.888;9.226;2023-02-23T05:02:49;22.23;;;16.83;;
7939;SDS011;4015;48.888;9.226;2023-02-23T05:05:15;23.20;;;16.63;;
7939;SDS011;4015;48.888;9.226;2023-02-23T05:07:40;20.67;;;17.10;;
7939;SDS011;4015;48.888;9.226;2023-02-23T05:10:06;19.10;;;16.07;;
7939;SDS011;4015;48.888;9.226;2023-02-23T05:12:32;21.10;;;17.27;;
7939;SDS011;4015;48.888;9.226;2023-02-23T05:14:57;20.67;;;17.30;;
7939;SDS011;4015;48.888;9.226;2023-02-23T05:17:23;22.93;;;17.57;;
7939;SDS011;4015;48.888;9.226;2023-02-23T05:19:48;23.03;;;18.33;;
7939;SDS011;4015;48.888;9.226;2023-02-23T05:22:14;20.20;;;17.17;;
7939;SDS011;4015;48.888;9.226;2023-02-23T05:24:39;20.90;;;17.53;;
7939;SDS011;4015;48.888;9.226;2023-02-23T05:27:06;22.13;;;17.27;;
7939;SDS011;4015;48.888;9.226;2023-02-23T05:29:32;21.27;;;17.93;;
7939;SDS011;4015;48.888;9.226;2023-02-23T05:31:58;20.17;;;17.47;;
7939;SDS011;4015;48.888;9.226;2023-02-23T05:34:23;22.03;;;17.30;;
7939;SDS011;4015;48.888;9.226;2023-02-23T05:36:48;21.37;;;17.43;;
7939;SDS011;4015;48.888;9.226;2023-02-23T05:39:14;24.50;;;17.93;;
7939;SDS011;4015;48.888;9.226;2023-02-23T05:41:39;22.93;;;17.20;;
7939;SDS011;4015;48.888;9.226;2023-02-23T05:44:05;21.47;;;17.73;;
7939;SDS011;4015;48.888;9.226;2023-02-23T05:46:30;23.80;;;18.00;;
7939;SDS011;4015;48.888;9.226;2023-02-23T05:48:56;22.30;;;18.67;;
7939;SDS011;4015;48.888;9.226;2023-02-23T05:51:23;22.50;;;16.53;;
7939;SDS011;4015;48.888;9.226;2023-02-23T05:53:49;22.93;;;16.23;;
7939;SDS011;4015;48.888;9.226;2023-02-23T05:56:15;25.17;;;17.70;;
7939;SDS011;4015;48.888;9.226;2023-02-23T05:58:44;19.93;;;16.47;;
7939;SDS011;4015;48.888;9.226;2023-02-23T06:01:13;20.50;;;16.33;;
7939;SDS011;4015;48.888;9.226;2023-02-23T06:03:39;25.73;;;18.63;;
7939;SDS011;4015;48.888;9.226;2023-02-23T06:06:04;21.37;;;18.27;;
7939;SDS011;4015;48.888;9.226;2023-02-23T06:08:30;23.43;;;17.43;;
7939;SDS011;4015;48.888;9.226;2023-02-23T06:10:56;25.63;;;18.70;;
7939;SDS011;4015;48.888;9.226;2023-02-23T06:13:22;21.73;;;17.40;;
7939;SDS011;4015;48.888;9.226;2023-02-23T06:15:47;19.70;;;17.17;;
7939;SDS011;4015;48.888;9.226;2023-02-23T06:18:13;21.43;;;17.90;;
7939;SDS011;4015;48.888;9.226;2023-02-23T06:20:39;25.50;;;18.73;;
7939;SDS011;4015;48.888;9.226;2023-02-23T06:23:04;23.53;;;17.70;;
7939;SDS011;4015;48.888;9.226;2023-02-23T06:25:31;22.47;;;16.83;;
7939;SDS011;4015;48.888;9.226;2023-02-23T06:27:56;24.53;;;17.80;;
7939;SDS011;4015;48.888;9.226;2023-02-23T06:30:21;28.27;;;20.17;;
7939;SDS011;4015;48.888;9.226;2023-02-23T06:32:47;72.93;;;57.23;;
7939;SDS011;4015;48.888;9.226;2023-02-23T06:35:13;24.30;;;21.50;;
7939;SDS011;4015;48.888;9.226;2023-02-23T06:37:38;31.57;;;21.33;;
7939;SDS011;4015;48.888;9.226;2023-02-23T06:40:03;23.93;;;18.67;;
7939;SDS011;4015;48.888;9.226;2023-02-23T06:42:29;24.60;;;18.90;;
7939;SDS011;4015;48.888;9.226;2023-02-23T06:44:55;25.27;;;19.23;;
7939;SDS011;4015;48.888;9.226;2023-02-23T06:47:20;25.77;;;19.47;;
7939;SDS011;4015;48.888;9.226;2023-02-23T06:49:45;24.53;;;17.70;;
7939;SDS011;4015;48.888;9.226;2023-02-23T06:52:11;24.57;;;18.90;;
7939;SDS011;4015;48.888;9.226;2023-02-23T06:54:37;25.43;;;17.30;;
7939;SDS011;4015;48.888;9.226;2023-02-23T06:57:04;25.60;;;19.30;;
7939;SDS011;4015;48.888;9.226;2023-02-23T06:59:30;25.17;;;18.50;;
7939;SDS011;4015;48.888;9.226;2023-02-23T07:01:55;23.40;;;18.40;;
7939;SDS011;4015;48.888;9.226;2023-02-23T07:04:20;25.93;;;18.97;;
7939;SDS011;4015;48.888;9.226;2023-02-23T07:06:46;22.57;;;17.50;;
7939;SDS011;4015;48.888;9.226;2023-02-23T07:09:12;25.43;;;18.23;;
7939;SDS011;4015;48.888;9.226;2023-02-23T07:11:39;21.73;;;18.63;;
7939;SDS011;4015;48.888;9.226;2023-02-23T07:14:05;23.20;;;18.47;;
7939;SDS011;4015;48.888;9.226;2023-02-23T07:16:31;25.83;;;20.37;;
7939;SDS011;4015;48.888;9.226;2023-02-23T07:18:56;26.43;;;17.63;;
7939;SDS011;4015;48.888;9.226;2023-02-23T07:21:22;22.30;;;18.47;;
7939;SDS011;4015;48.888;9.226;2023-02-23T07:23:47;22.97;;;19.30;;
7939;SDS011;4015;48.888;9.226;2023-02-23T07:26:13;26.97;;;18.97;;
7939;SDS011;4015;48.888;9.226;2023-02-23T07:28:40;23.70;;;18.87;;
7939;SDS011;4015;48.888;9.226;2023-02-23T07:31:05;22.57;;;18.77;;
7939;SDS011;4015;48.888;9.226;2023-02-23T07:33:31;23.50;;;19.37;;
7939;SDS011;4015;48.888;9.226;2023-02-23T07:35:56;24.37;;;18.97;;
7939;SDS011;4015;48.888;9.226;2023-02-23T07:38:21;27.87;;;19.77;;
7939;SDS011;4015;48.888;9.226;2023-02-23T07:40:48;25.97;;;19.47;;
7939;SDS011;4015;48.888;9.226;2023-02-23T07:43:14;27.13;;;20.93;;
7939;SDS011;4015;48.888;9.226;2023-02-23T07:45:39;27.17;;;19.50;;
7939;SDS011;4015;48.888;9.226;2023-02-23T07:48:05;25.83;;;20.30;;
7939;SDS011;4015;48.888;9.226;2023-02-23T07:50:31;24.53;;;19.47;;
7939;SDS011;4015;48.888;9.226;2023-02-23T07:52:56;24.13;;;19.50;;
7939;SDS011;4015;48.888;9.226;2023-02-23T07:55:21;24.03;;;18.33;;
7939;SDS011;4015;48.888;9.226;2023-02-23T07:57:47;26.00;;;17.87;;
7939;SDS011;4015;48.888;9.226;2023-02-23T08:00:12;26.60;;;18.60;;
7939;SDS011;4015;48.888;9.226;2023-02-23T08:02:38;23.87;;;17.97;;
7939;SDS011;4015;48.888;9.226;2023-02-23T08:05:04;25.97;;;19.83;;
7939;SDS011;4015;48.888;9.226;2023-02-23T08:07:33;22.77;;;18.30;;
7939;SDS011;4015;48.888;9.226;2023-02-23T08:09:58;25.40;;;20.03;;
7939;SDS011;4015;48.888;9.226;2023-02-23T08:12:24;27.50;;;19.50;;
7939;SDS011;4015;48.888;9.226;2023-02-23T08:14:49;23.93;;;19.50;;
7939;SDS011;4015;48.888;9.226;2023-02-23T08:17:15;26.17;;;19.53;;
7939;SDS011;4015;48.888;9.226;2023-02-23T08:19:40;27.33;;;19.87;;
7939;SDS011;4015;48.888;9.226;2023-02-23T08:22:05;26.33;;;20.67;;
7939;SDS011;4015;48.888;9.226;2023-02-23T08:24:31;26.47;;;20.27;;
7939;SDS011;4015;48.888;9.226;2023-02-23T08:26:57;28.13;;;19.63;;
7939;SDS011;4015;48.888;9.226;2023-02-23T08:29:22;30.93;;;20.20;;
7939;SDS011;4015;48.888;9.226;2023-02-23T08:31:48;23.63;;;18.40;;
7939;SDS011;4015;48.888;9.226;2023-02-23T08:34:16;25.87;;;19.23;;
7939;SDS011;4015;48.888;9.226;2023-02-23T08:36:43;22.67;;;18.53;;
7939;SDS011;4015;48.888;9.226;2023-02-23T08:39:09;27.27;;;19.47;;
7939;SDS011;4015;48.888;9.226;2023-02-23T08:41:36;23.27;;;18.90;;
7939;SDS011;4015;48.888;9.226;2023-02-23T08:44:02;22.63;;;18.87;;
7939;SDS011;4015;48.888;9.226;2023-02-23T08:46:27;28.03;;;18.93;;
7939;SDS011;4015;48.888;9.226;2023-02-23T08:48:54;21.00;;;18.10;;
7939;SDS011;4015;48.888;9.226;2023-02-23T08:51:19;25.30;;;19.10;;
7939;SDS011;4015;48.888;9.226;2023-02-23T08:53:45;22.00;;;18.17;;
7939;SDS011;4015;48.888;9.226;2023-02-23T08:56:10;21.73;;;18.57;;
7939;SDS011;4015;48.888;9.226;2023-02-23T08:58:37;20.37;;;17.17;;
7939;SDS011;4015;48.888;9.226;2023-02-23T09:01:02;22.10;;;18.17;;
7939;SDS011;4015;48.888;9.226;2023-02-23T09:03:28;21.83;;;18.13;;
7939;SDS011;4015;48.888;9.226;2023-02-23T09:06:03;21.40;;;17.63;;
7939;SDS011;4015;48.888;9.226;2023-02-23T09:08:31;24.60;;;19.33;;
7939;SDS011;4015;48.888;9.226;2023-02-23T09:10:57;21.60;;;16.73;;
7939;SDS011;4015;48.888;9.226;2023-02-23T09:13:22;21.47;;;17.87;;
7939;SDS011;4015;48.888;9.226;2023-02-23T09:15:47;22.13;;;17.37;;
7939;SDS011;4015;48.888;9.226;2023-02-23T09:18:12;22.10;;;16.87;;
7939;SDS011;4015;48.888;9.226;2023-02-23T09:20:42;21.23;;;17.57;;
7939;SDS011;4015;48.888;9.226;2023-02-23T09:23:08;20.87;;;16.87;;
7939;SDS011;4015;48.888;9.226;2023-02-23T09:25:37;19.13;;;16.20;;
7939;SDS011;4015;48.888;9.226;2023-02-23T09:28:05;18.17;;;15.17;;
7939;SDS011;4015;48.888;9.226;2023-02-23T09:30:30;16.20;;;14.53;;
7939;SDS011;4015;48.888;9.226;2023-02-23T09:32:56;18.67;;;15.30;;
7939;SDS011;4015;48.888;9.226;2023-02-23T09:35:22;19.03;;;15.00;;
7939;SDS011;4015;48.888;9.226;2023-02-23T09:37:49;20.07;;;14.93;;
7939;SDS011;4015;48.888;9.226;2023-02-23T09:40:17;22.03;;;16.00;;
7939;SDS011;4015;48.888;9.226;2023-02-23T09:48:09;19.03;;;14.33;;
7939;SDS011;4015;48.888;9.226;2023-02-23T09:50:36;19.17;;;13.60;;
7939;SDS011;4015;48.888;9.226;2023-02-23T09:55:31;15.30;;;13.13;;
7939;SDS011;4015;48.888;9.226;2023-02-23T09:57:57;17.42;;;12.98;;
7939;SDS011;4015;48.888;9.226;2023-02-23T10:00:30;12.90;;;11.57;;
7939;SDS011;4015;48.888;9.226;2023-02-23T10:03:10;15.25;;;11.40;;
7939;SDS011;4015;48.888;9.226;2023-02-23T10:05:47;14.13;;;10.80;;
7939;SDS011;4015;48.888;9.226;2023-02-23T10:10:49;14.35;;;10.85;;
7939;SDS011;4015;48.888;9.226;2023-02-23T10:13:41;17.17;;;10.82;;
7939;SDS011;4015;48.888;9.226;2023-02-23T10:16:27;12.77;;;9.70;;
7939;SDS011;4015;48.888;9.226;2023-02-23T10:19:23;9.20;;;8.27;;
7939;SDS011;4015;48.888;9.226;2023-02-23T10:21:55;9.95;;;8.45;;
7939;SDS011;4015;48.888;9.226;2023-02-23T10:24:28;12.15;;;9.57;;
7939;SDS011;4015;48.888;9.226;2023-02-23T10:26:59;9.00;;;8.10;;
7939;SDS011;4015;48.888;9.226;2023-02-23T10:32:04;7.82;;;7.03;;
7939;SDS011;4015;48.888;9.226;2023-02-23T10:34:36;8.65;;;6.95;;
7939;SDS011;4015;48.888;9.226;2023-02-23T10:37:03;7.80;;;7.00;;
7939;SDS011;4015;48.888;9.226;2023-02-23T10:39:31;9.98;;;7.97;;
7939;SDS011;4015;48.888;9.226;2023-02-23T10:41:58;8.57;;;5.50;;
7939;SDS011;4015;48.888;9.226;2023-02-23T10:44:26;9.55;;;6.72;;
7939;SDS011;4015;48.888;9.226;2023-02-23T10:47:06;10.95;;;8.27;;
7939;SDS011;4015;48.888;9.226;2023-02-23T10:49:48;11.23;;;8.55;;
7939;SDS011;4015;48.888;9.226;2023-02-23T10:52:17;10.75;;;7.47;;
7939;SDS011;4015;48.888;9.226;2023-02-23T10:54:48;12.35;;;8.70;;
7939;SDS011;4015;48.888;9.226;2023-02-23T10:57:33;12.13;;;8.15;;
7939;SDS011;4015;48.888;9.226;2023-02-23T11:02:50;10.40;;;8.82;;
7939;SDS011;4015;48.888;9.226;2023-02-23T11:08:13;13.40;;;9.05;;
7939;SDS011;4015;48.888;9.226;2023-02-23T11:13:40;9.73;;;7.05;;
7939;SDS011;4015;48.888;9.226;2023-02-23T11:16:11;17.17;;;7.95;;
7939;SDS011;4015;48.888;9.226;2023-02-23T11:18:50;13.25;;;7.90;;
7939;SDS011;4015;48.888;9.226;2023-02-23T11:21:25;9.95;;;8.02;;
7939;SDS011;4015;48.888;9.226;2023-02-23T11:23:55;9.48;;;8.55;;
7939;SDS011;4015;48.888;9.226;2023-02-23T11:26:29;11.35;;;8.93;;
7939;SDS011;4015;48.888;9.226;2023-02-23T11:29:01;10.68;;;7.43;;
7939;SDS011;4015;48.888;9.226;2023-02-23T11:31:34;11.68;;;8.02;;
7939;SDS011;4015;48.888;9.226;2023-02-23T11:34:01;12.52;;;7.75;;
7939;SDS011;4015;48.888;9.226;2023-02-23T11:36:33;10.45;;;7.82;;
7939;SDS011;4015;48.888;9.226;2023-02-23T11:41:30;11.02;;;7.45;;
7939;SDS011;4015;48.888;9.226;2023-02-23T11:43:59;13.63;;;7.55;;
7939;SDS011;4015;48.888;9.226;2023-02-23T11:46:26;9.98;;;7.40;;
7939;SDS011;4015;48.888;9.226;2023-02-23T11:48:59;7.55;;;6.55;;
7939;SDS011;4015;48.888;9.226;2023-02-23T11:51:39;7.85;;;6.57;;
7939;SDS011;4015;48.888;9.226;2023-02-23T11:54:06;11.43;;;7.38;;
7939;SDS011;4015;48.888;9.226;2023-02-23T11:56:40;8.43;;;6.32;;
7939;SDS011;4015;48.888;9.226;2023-02-23T11:59:16;11.40;;;6.43;;
7939;SDS011;4015;48.888;9.226;2023-02-23T12:01:52;10.32;;;7.15;;
7939;SDS011;4015;48.888;9.226;2023-02-23T12:06:47;10.35;;;7.50;;
7939;SDS011;4015;48.888;9.226;2023-02-23T12:11:52;9.70;;;6.85;;
7939;SDS011;4015;48.888;9.226;2023-02-23T12:16:48;10.40;;;6.95;;
7939;SDS011;4015;48.888;9.226;2023-02-23T12:19:23;8.68;;;7.25;;
7939;SDS011;4015;48.888;9.226;2023-02-23T12:32:17;9.32;;;5.60;;
7939;SDS011;4015;48.888;9.226;2023-02-23T12:35:00;7.72;;;5.53;;
7939;SDS011;4015;48.888;9.226;2023-02-23T12:37:39;8.48;;;5.18;;
7939;SDS011;4015;48.888;9.226;2023-02-23T12:40:20;9.57;;;5.07;;
7939;SDS011;4015;48.888;9.226;2023-02-23T12:50:48;7.68;;;4.43;;
7939;SDS011;4015;48.888;9.226;2023-02-23T12:58:49;9.10;;;5.13;;
7939;SDS011;4015;48.888;9.226;2023-02-23T13:01:41;7.03;;;5.03;;
7939;SDS011;4015;48.888;9.226;2023-02-23T13:07:50;9.75;;;5.55;;
7939;SDS011;4015;48.888;9.226;2023-02-23T13:10:19;6.57;;;4.97;;
7939;SDS011;4015;48.888;9.226;2023-02-23T13:18:42;4.93;;;3.60;;
7939;SDS011;4015;48.888;9.226;2023-02-23T13:21:22;8.43;;;3.95;;
7939;SDS011;4015;48.888;9.226;2023-02-23T13:24:00;7.50;;;3.95;;
7939;SDS011;4015;48.888;9.226;2023-02-23T13:31:35;5.85;;;3.17;;
7939;SDS011;4015;48.888;9.226;2023-02-23T13:34:02;7.13;;;2.78;;
7939;SDS011;4015;48.888;9.226;2023-02-23T13:36:32;5.63;;;2.60;;
7939;SDS011;4015;48.888;9.226;2023-02-23T13:39:09;7.70;;;2.70;;
7939;SDS011;4015;48.888;9.226;2023-02-23T13:42:02;7.20;;;2.92;;
7939;SDS011;4015;48.888;9.226;2023-02-23T13:44:40;9.07;;;2.83;;
7939;SDS011;4015;48.888;9.226;2023-02-23T13:52:42;5.50;;;2.45;;
7939;SDS011;4015;48.888;9.226;2023-02-23T13:57:49;5.88;;;2.55;;
7939;SDS011;4015;48.888;9.226;2023-02-23T14:00:18;5.15;;;2.53;;
7939;SDS011;4015;48.888;9.226;2023-02-23T14:02:46;9.23;;;3.50;;
7939;SDS011;4015;48.888;9.226;2023-02-23T14:07:43;6.70;;;4.40;;
7939;SDS011;4015;48.888;9.226;2023-02-23T14:10:16;9.48;;;4.70;;
7939;SDS011;4015;48.888;9.226;2023-02-23T14:15:49;9.52;;;4.32;;
7939;SDS011;4015;48.888;9.226;2023-02-23T14:18:34;10.40;;;4.65;;
7939;SDS011;4015;48.888;9.226;2023-02-23T14:21:20;10.30;;;4.32;;
7939;SDS011;4015;48.888;9.226;2023-02-23T14:24:16;6.10;;;3.78;;
7939;SDS011;4015;48.888;9.226;2023-02-23T14:30:42;7.90;;;4.95;;
7939;SDS011;4015;48.888;9.226;2023-02-23T14:32:38;8.27;;;4.30;;
7939;SDS011;4015;48.888;9.226;2023-02-23T14:35:04;7.20;;;4.07;;
7939;SDS011;4015;48.888;9.226;2023-02-23T14:40:12;6.95;;;4.63;;
7939;SDS011;4015;48.888;9.226;2023-02-23T14:42:43;5.45;;;3.70;;
7939;SDS011;4015;48.888;9.226;2023-02-23T14:45:23;9.52;;;4.38;;
7939;SDS011;4015;48.888;9.226;2023-02-23T14:47:51;6.78;;;4.40;;
7939;SDS011;4015;48.888;9.226;2023-02-23T14:50:26;7.43;;;4.72;;
7939;SDS011;4015;48.888;9.226;2023-02-23T14:52:56;6.43;;;4.28;;
7939;SDS011;4015;48.888;9.226;2023-02-23T14:55:26;5.72;;;4.15;;
7939;SDS011;4015;48.888;9.226;2023-02-23T14:57:53;8.07;;;4.72;;
7939;SDS011;4015;48.888;9.226;2023-02-23T15:02:54;9.55;;;4.40;;
7939;SDS011;4015;48.888;9.226;2023-02-23T15:05:23;8.38;;;5.32;;
7939;SDS011;4015;48.888;9.226;2023-02-23T15:07:56;10.43;;;4.60;;
7939;SDS011;4015;48.888;9.226;2023-02-23T15:12:51;9.23;;;5.75;;
7939;SDS011;4015;48.888;9.226;2023-02-23T15:15:18;8.30;;;5.22;;
7939;SDS011;4015;48.888;9.226;2023-02-23T15:17:47;8.43;;;5.03;;
7939;SDS011;4015;48.888;9.226;2023-02-23T15:20:16;6.78;;;4.78;;
7939;SDS011;4015;48.888;9.226;2023-02-23T15:22:47;11.00;;;4.63;;
7939;SDS011;4015;48.888;9.226;2023-02-23T15:25:19;10.48;;;5.13;;
7939;SDS011;4015;48.888;9.226;2023-02-23T15:27:47;8.20;;;4.95;;
7939;SDS011;4015;48.888;9.226;2023-02-23T15:32:46;8.38;;;5.82;;
7939;SDS011;4015;48.888;9.226;2023-02-23T15:35:12;6.95;;;4.93;;
7939;SDS011;4015;48.888;9.226;2023-02-23T15:40:08;10.20;;;4.82;;
7939;SDS011;4015;48.888;9.226;2023-02-23T15:42:40;7.03;;;4.68;;
7939;SDS011;4015;48.888;9.226;2023-02-23T15:45:18;7.27;;;4.27;;
7939;SDS011;4015;48.888;9.226;2023-02-23T15:47:51;6.10;;;5.18;;
7939;SDS011;4015;48.888;9.226;2023-02-23T15:50:20;6.00;;;3.87;;
7939;SDS011;4015;48.888;9.226;2023-02-23T15:52:49;8.27;;;4.97;;
7939;SDS011;4015;48.888;9.226;2023-02-23T15:55:25;9.88;;;4.63;;
7939;SDS011;4015;48.888;9.226;2023-02-23T15:57:54;8.27;;;5.23;;
7939;SDS011;4015;48.888;9.226;2023-02-23T16:00:33;8.63;;;5.27;;
7939;SDS011;4015;48.888;9.226;2023-02-23T16:03:02;7.85;;;4.97;;
7939;SDS011;4015;48.888;9.226;2023-02-23T16:05:30;6.57;;;4.87;;
7939;SDS011;4015;48.888;9.226;2023-02-23T16:08:22;10.30;;;5.40;;
7939;SDS011;4015;48.888;9.226;2023-02-23T16:10:48;7.73;;;5.27;;
7939;SDS011;4015;48.888;9.226;2023-02-23T16:13:21;6.77;;;5.23;;
7939;SDS011;4015;48.888;9.226;2023-02-23T16:15:47;11.77;;;6.27;;
7939;SDS011;4015;48.888;9.226;2023-02-23T16:18:17;9.00;;;5.37;;
7939;SDS011;4015;48.888;9.226;2023-02-23T16:20:50;11.70;;;6.20;;
7939;SDS011;4015;48.888;9.226;2023-02-23T16:25:53;9.80;;;5.30;;
7939;SDS011;4015;48.888;9.226;2023-02-23T16:28:23;9.90;;;5.10;;
7939;SDS011;4015;48.888;9.226;2023-02-23T16:30:57;11.07;;;5.07;;
7939;SDS011;4015;48.888;9.226;2023-02-23T16:33:30;9.10;;;5.77;;
7939;SDS011;4015;48.888;9.226;2023-02-23T16:41:28;10.90;;;6.40;;
7939;SDS011;4015;48.888;9.226;2023-02-23T16:43:56;9.40;;;6.03;;
7939;SDS011;4015;48.888;9.226;2023-02-23T16:46:24;7.97;;;5.73;;
7939;SDS011;4015;48.888;9.226;2023-02-23T16:48:53;9.97;;;5.83;;
7939;SDS011;4015;48.888;9.226;2023-02-23T16:51:19;6.40;;;4.53;;
7939;SDS011;4015;48.888;9.226;2023-02-23T16:53:49;7.43;;;5.17;;
7939;SDS011;4015;48.888;9.226;2023-02-23T16:56:15;9.47;;;5.53;;
7939;SDS011;4015;48.888;9.226;2023-02-23T16:58:44;9.23;;;5.70;;
7939;SDS011;4015;48.888;9.226;2023-02-23T17:01:12;9.30;;;5.67;;
7939;SDS011;4015;48.888;9.226;2023-02-23T17:03:39;11.70;;;6.40;;
7939;SDS011;4015;48.888;9.226;2023-02-23T17:06:06;13.07;;;5.80;;
7939;SDS011;4015;48.888;9.226;2023-02-23T17:08:31;9.17;;;5.47;;
7939;SDS011;4015;48.888;9.226;2023-02-23T17:10:58;10.57;;;6.03;;
7939;SDS011;4015;48.888;9.226;2023-02-23T17:13:26;7.57;;;5.77;;
7939;SDS011;4015;48.888;9.226;2023-02-23T17:15:54;10.00;;;6.13;;
7939;SDS011;4015;48.888;9.226;2023-02-23T17:18:21;13.40;;;5.53;;
7939;SDS011;4015;48.888;9.226;2023-02-23T17:20:48;12.27;;;6.27;;
7939;SDS011;4015;48.888;9.226;2023-02-23T17:23:14;13.87;;;6.50;;
7939;SDS011;4015;48.888;9.226;2023-02-23T17:25:40;12.20;;;6.13;;
7939;SDS011;4015;48.888;9.226;2023-02-23T17:28:05;16.37;;;6.00;;
7939;SDS011;4015;48.888;9.226;2023-02-23T17:30:30;10.60;;;5.77;;
7939;SDS011;4015;48.888;9.226;2023-02-23T17:32:57;12.43;;;6.87;;
7939;SDS011;4015;48.888;9.226;2023-02-23T17:35:23;12.70;;;7.40;;
7939;SDS011;4015;48.888;9.226;2023-02-23T17:37:49;11.43;;;7.67;;